sensor_id;sensor_type;location;lat;lon;timestamp;temperature;humidity
28524;DHT22;15734;50.904;6.922;2022-12-20T00:01:23;10.90;99.90
28524;DHT22;15734;50.904;6.922;2022-12-20T00:03:50;10.90;99.90
28524;DHT22;15734;50.904;6.922;2022-12-20T00:06:15;10.80;99.90
28524;DHT22;15734;50.904;6.922;2022-12-20T00:08:41;10.70;99.90
28524;DHT22;15734;50.904;6.922;2022-12-20T00:11:07;10.60;99.90
28524;DHT22;15734;50.904;6.922;2022-12-20T00:13:33;10.60;99.90
28524;DHT22;15734;50.904;6.922;2022-12-20T00:16:03;10.60;99.90
28524;DHT22;15734;50.904;6.922;2022-12-20T00:18:28;10.60;99.90
28524;DHT22;15734;50.904;6.922;2022-12-20T00:20:57;10.60;99.90
28524;DHT22;15734;50.904;6.922;2022-12-20T00:23:23;10.60;99.90
28524;DHT22;15734;50.904;6.922;2022-12-20T00:25:48;10.50;99.90
28524;DHT22;15734;50.904;6.922;2022-12-20T00:28:13;10.50;99.90
28524;DHT22;15734;50.904;6.922;2022-12-20T00:30:39;10.40;99.90
28524;DHT22;15734;50.904;6.922;2022-12-20T00:33:04;10.40;99.90
28524;DHT22;15734;50.904;6.922;2022-12-20T00:35:30;10.30;99.90
28524;DHT22;15734;50.904;6.922;2022-12-20T00:37:55;10.30;99.90
28524;DHT22;15734;50.904;6.922;2022-12-20T00:40:21;10.20;99.90
28524;DHT22;15734;50.904;6.922;2022-12-20T00:42:46;10.20;99.90
28524;DHT22;15734;50.904;6.922;2022-12-20T00:45:11;10.10;99.90
28524;DHT22;15734;50.904;6.922;2022-12-20T00:47:37;10.10;99.90
28524;DHT22;15734;50.904;6.922;2022-12-20T00:50:02;10.10;99.90
28524;DHT22;15734;50.904;6.922;2022-12-20T00:52:28;10.10;99.90
28524;DHT22;15734;50.904;6.922;2022-12-20T00:54:53;10.10;99.90
28524;DHT22;15734;50.904;6.922;2022-12-20T00:57:19;10.00;99.90
28524;DHT22;15734;50.904;6.922;2022-12-20T00:59:44;10.00;99.90
28524;DHT22;15734;50.904;6.922;2022-12-20T01:02:10;10.00;99.90
28524;DHT22;15734;50.904;6.922;2022-12-20T01:07:03;9.90;99.90
28524;DHT22;15734;50.904;6.922;2022-12-20T01:09:29;9.90;99.90
28524;DHT22;15734;50.904;6.922;2022-12-20T01:11:54;9.60;99.90
28524;DHT22;15734;50.904;6.922;2022-12-20T01:14:19;9.70;99.90
28524;DHT22;15734;50.904;6.922;2022-12-20T01:16:45;9.70;99.90
28524;DHT22;15734;50.904;6.922;2022-12-20T01:19:12;9.70;99.90
28524;DHT22;15734;50.904;6.922;2022-12-20T01:21:38;9.70;99.90
28524;DHT22;15734;50.904;6.922;2022-12-20T01:24:09;9.70;99.90
28524;DHT22;15734;50.904;6.922;2022-12-20T01:26:35;9.60;99.90
28524;DHT22;15734;50.904;6.922;2022-12-20T01:29:00;9.60;99.90
28524;DHT22;15734;50.904;6.922;2022-12-20T01:31:26;9.60;99.90
28524;DHT22;15734;50.904;6.922;2022-12-20T01:33:52;9.60;99.90
28524;DHT22;15734;50.904;6.922;2022-12-20T01:36:18;9.70;99.90
28524;DHT22;15734;50.904;6.922;2022-12-20T01:38:44;9.80;99.90
28524;DHT22;15734;50.904;6.922;2022-12-20T01:41:13;9.90;99.90
28524;DHT22;15734;50.904;6.922;2022-12-20T01:43:52;9.90;99.90
28524;DHT22;15734;50.904;6.922;2022-12-20T01:46:19;9.90;99.90
28524;DHT22;15734;50.904;6.922;2022-12-20T01:48:49;10.00;99.90
28524;DHT22;15734;50.904;6.922;2022-12-20T01:51:15;9.90;99.90
28524;DHT22;15734;50.904;6.922;2022-12-20T01:53:41;10.00;99.90
28524;DHT22;15734;50.904;6.922;2022-12-20T01:56:07;10.10;99.90
28524;DHT22;15734;50.904;6.922;2022-12-20T01:58:33;10.10;99.90
28524;DHT22;15734;50.904;6.922;2022-12-20T02:01:00;10.10;99.90
28524;DHT22;15734;50.904;6.922;2022-12-20T02:03:25;10.30;99.90
28524;DHT22;15734;50.904;6.922;2022-12-20T02:05:51;10.30;99.90
28524;DHT22;15734;50.904;6.922;2022-12-20T02:08:17;10.30;99.90
28524;DHT22;15734;50.904;6.922;2022-12-20T02:13:16;10.40;99.90
28524;DHT22;15734;50.904;6.922;2022-12-20T02:15:47;10.40;99.90
28524;DHT22;15734;50.904;6.922;2022-12-20T02:18:19;10.30;99.90
28524;DHT22;15734;50.904;6.922;2022-12-20T02:26:25;10.40;99.90
28524;DHT22;15734;50.904;6.922;2022-12-20T02:31:38;10.40;99.90
28524;DHT22;15734;50.904;6.922;2022-12-20T02:34:04;10.30;99.90
28524;DHT22;15734;50.904;6.922;2022-12-20T02:36:30;10.30;99.90
28524;DHT22;15734;50.904;6.922;2022-12-20T02:38:55;10.30;99.90
28524;DHT22;15734;50.904;6.922;2022-12-20T02:41:37;10.30;99.90
28524;DHT22;15734;50.904;6.922;2022-12-20T02:44:04;10.30;99.90
28524;DHT22;15734;50.904;6.922;2022-12-20T02:46:50;10.30;99.90
28524;DHT22;15734;50.904;6.922;2022-12-20T02:49:17;10.30;99.90
28524;DHT22;15734;50.904;6.922;2022-12-20T02:51:45;10.30;99.90
28524;DHT22;15734;50.904;6.922;2022-12-20T02:54:11;10.30;99.90
28524;DHT22;15734;50.904;6.922;2022-12-20T02:59:13;10.20;99.90
28524;DHT22;15734;50.904;6.922;2022-12-20T03:01:40;10.20;99.90
28524;DHT22;15734;50.904;6.922;2022-12-20T03:04:08;10.10;99.90
28524;DHT22;15734;50.904;6.922;2022-12-20T03:06:33;10.00;99.90
28524;DHT22;15734;50.904;6.922;2022-12-20T03:08:59;9.90;99.90
28524;DHT22;15734;50.904;6.922;2022-12-20T03:11:24;9.80;99.90
28524;DHT22;15734;50.904;6.922;2022-12-20T03:13:50;9.70;99.90
28524;DHT22;15734;50.904;6.922;2022-12-20T03:16:15;9.60;99.90
28524;DHT22;15734;50.904;6.922;2022-12-20T03:18:41;9.50;99.90
28524;DHT22;15734;50.904;6.922;2022-12-20T03:21:06;9.40;99.90
28524;DHT22;15734;50.904;6.922;2022-12-20T03:23:32;9.40;99.90
28524;DHT22;15734;50.904;6.922;2022-12-20T03:25:57;9.40;99.90
28524;DHT22;15734;50.904;6.922;2022-12-20T03:28:23;9.40;99.90
28524;DHT22;15734;50.904;6.922;2022-12-20T03:30:48;9.40;99.90
28524;DHT22;15734;50.904;6.922;2022-12-20T03:33:14;9.30;99.90
28524;DHT22;15734;50.904;6.922;2022-12-20T03:35:39;9.30;99.90
28524;DHT22;15734;50.904;6.922;2022-12-20T03:38:05;9.30;99.90
28524;DHT22;15734;50.904;6.922;2022-12-20T03:40:30;9.30;99.90
28524;DHT22;15734;50.904;6.922;2022-12-20T03:42:56;9.30;99.90
28524;DHT22;15734;50.904;6.922;2022-12-20T03:45:21;9.20;99.90
28524;DHT22;15734;50.904;6.922;2022-12-20T03:47:47;9.20;99.90
28524;DHT22;15734;50.904;6.922;2022-12-20T03:50:12;9.20;99.90
28524;DHT22;15734;50.904;6.922;2022-12-20T03:52:38;9.20;99.90
28524;DHT22;15734;50.904;6.922;2022-12-20T03:55:03;9.20;99.90
28524;DHT22;15734;50.904;6.922;2022-12-20T03:57:29;9.20;99.90
28524;DHT22;15734;50.904;6.922;2022-12-20T03:59:54;9.20;99.90
28524;DHT22;15734;50.904;6.922;2022-12-20T04:02:20;9.20;99.90
28524;DHT22;15734;50.904;6.922;2022-12-20T04:04:46;9.20;99.90
28524;DHT22;15734;50.904;6.922;2022-12-20T04:07:12;9.20;99.90
28524;DHT22;15734;50.904;6.922;2022-12-20T04:09:37;9.10;99.90
28524;DHT22;15734;50.904;6.922;2022-12-20T04:12:03;9.10;99.90
28524;DHT22;15734;50.904;6.922;2022-12-20T04:14:28;9.10;99.90
28524;DHT22;15734;50.904;6.922;2022-12-20T04:16:54;9.10;99.90
28524;DHT22;15734;50.904;6.922;2022-12-20T04:19:19;9.10;99.90
28524;DHT22;15734;50.904;6.922;2022-12-20T04:21:45;9.00;99.90
28524;DHT22;15734;50.904;6.922;2022-12-20T04:24:10;9.10;99.90
28524;DHT22;15734;50.904;6.922;2022-12-20T04:26:36;9.00;99.90
28524;DHT22;15734;50.904;6.922;2022-12-20T04:29:01;9.10;99.90
28524;DHT22;15734;50.904;6.922;2022-12-20T04:31:27;9.10;99.90
28524;DHT22;15734;50.904;6.922;2022-12-20T04:33:52;9.00;99.90
28524;DHT22;15734;50.904;6.922;2022-12-20T04:36:18;9.00;99.90
28524;DHT22;15734;50.904;6.922;2022-12-20T04:38:43;9.00;99.90
28524;DHT22;15734;50.904;6.922;2022-12-20T04:41:09;9.00;99.90
28524;DHT22;15734;50.904;6.922;2022-12-20T04:43:52;9.00;99.90
28524;DHT22;15734;50.904;6.922;2022-12-20T04:46:19;9.00;99.90
28524;DHT22;15734;50.904;6.922;2022-12-20T04:48:44;9.10;99.90
28524;DHT22;15734;50.904;6.922;2022-12-20T04:51:10;9.10;99.90
28524;DHT22;15734;50.904;6.922;2022-12-20T04:53:35;9.00;99.90
28524;DHT22;15734;50.904;6.922;2022-12-20T04:56:20;9.00;99.90
28524;DHT22;15734;50.904;6.922;2022-12-20T04:58:47;9.00;99.90
28524;DHT22;15734;50.904;6.922;2022-12-20T05:01:12;9.10;99.90
28524;DHT22;15734;50.904;6.922;2022-12-20T05:03:38;9.10;99.90
28524;DHT22;15734;50.904;6.922;2022-12-20T05:06:04;9.10;99.90
28524;DHT22;15734;50.904;6.922;2022-12-20T05:08:30;9.00;99.90
28524;DHT22;15734;50.904;6.922;2022-12-20T05:10:55;9.00;99.90
28524;DHT22;15734;50.904;6.922;2022-12-20T05:13:21;9.10;99.90
28524;DHT22;15734;50.904;6.922;2022-12-20T05:15:53;9.10;99.90
28524;DHT22;15734;50.904;6.922;2022-12-20T05:18:19;9.00;99.90
28524;DHT22;15734;50.904;6.922;2022-12-20T05:20:44;9.00;99.90
28524;DHT22;15734;50.904;6.922;2022-12-20T05:23:10;9.00;99.90
28524;DHT22;15734;50.904;6.922;2022-12-20T05:25:54;9.00;99.90
28524;DHT22;15734;50.904;6.922;2022-12-20T05:28:38;9.00;99.90
28524;DHT22;15734;50.904;6.922;2022-12-20T05:31:04;9.10;99.90
28524;DHT22;15734;50.904;6.922;2022-12-20T05:33:30;9.10;99.90
28524;DHT22;15734;50.904;6.922;2022-12-20T05:35:55;9.10;99.90
28524;DHT22;15734;50.904;6.922;2022-12-20T05:38:21;9.10;99.90
28524;DHT22;15734;50.904;6.922;2022-12-20T05:40:47;9.10;99.90
28524;DHT22;15734;50.904;6.922;2022-12-20T05:43:13;9.20;99.90
28524;DHT22;15734;50.904;6.922;2022-12-20T05:45:38;9.20;99.90
28524;DHT22;15734;50.904;6.922;2022-12-20T05:48:04;9.20;99.90
28524;DHT22;15734;50.904;6.922;2022-12-20T05:50:29;9.20;99.90
28524;DHT22;15734;50.904;6.922;2022-12-20T05:52:55;9.20;99.90
28524;DHT22;15734;50.904;6.922;2022-12-20T05:55:20;9.20;99.90
28524;DHT22;15734;50.904;6.922;2022-12-20T05:57:46;9.20;99.90
28524;DHT22;15734;50.904;6.922;2022-12-20T06:00:11;9.10;99.90
28524;DHT22;15734;50.904;6.922;2022-12-20T06:02:37;9.10;99.90
28524;DHT22;15734;50.904;6.922;2022-12-20T06:05:03;9.10;99.90
28524;DHT22;15734;50.904;6.922;2022-12-20T06:07:28;9.10;99.90
28524;DHT22;15734;50.904;6.922;2022-12-20T06:09:54;9.10;99.90
28524;DHT22;15734;50.904;6.922;2022-12-20T06:12:19;9.00;99.90
28524;DHT22;15734;50.904;6.922;2022-12-20T06:14:45;9.10;99.90
28524;DHT22;15734;50.904;6.922;2022-12-20T06:17:10;9.10;99.90
28524;DHT22;15734;50.904;6.922;2022-12-20T06:19:36;9.10;99.90
28524;DHT22;15734;50.904;6.922;2022-12-20T06:22:01;9.10;99.90
28524;DHT22;15734;50.904;6.922;2022-12-20T06:24:27;9.10;99.90
28524;DHT22;15734;50.904;6.922;2022-12-20T06:26:53;9.10;99.90
28524;DHT22;15734;50.904;6.922;2022-12-20T06:29:18;9.10;99.90
28524;DHT22;15734;50.904;6.922;2022-12-20T06:31:45;9.10;99.90
28524;DHT22;15734;50.904;6.922;2022-12-20T06:34:11;9.10;99.90
28524;DHT22;15734;50.904;6.922;2022-12-20T06:36:37;9.10;99.90
28524;DHT22;15734;50.904;6.922;2022-12-20T06:39:02;9.10;99.90
28524;DHT22;15734;50.904;6.922;2022-12-20T06:41:28;9.10;99.90
28524;DHT22;15734;50.904;6.922;2022-12-20T06:43:53;9.10;99.90
28524;DHT22;15734;50.904;6.922;2022-12-20T06:46:19;9.20;99.90
28524;DHT22;15734;50.904;6.922;2022-12-20T06:48:44;9.10;99.90
28524;DHT22;15734;50.904;6.922;2022-12-20T06:51:10;9.10;99.90
28524;DHT22;15734;50.904;6.922;2022-12-20T06:53:36;9.10;99.90
28524;DHT22;15734;50.904;6.922;2022-12-20T06:56:01;9.10;99.90
28524;DHT22;15734;50.904;6.922;2022-12-20T06:58:27;9.10;99.90
28524;DHT22;15734;50.904;6.922;2022-12-20T07:00:53;9.10;99.90
28524;DHT22;15734;50.904;6.922;2022-12-20T07:03:18;9.10;99.90
28524;DHT22;15734;50.904;6.922;2022-12-20T07:05:44;9.00;99.90
28524;DHT22;15734;50.904;6.922;2022-12-20T07:08:09;9.00;99.90
28524;DHT22;15734;50.904;6.922;2022-12-20T07:10:35;9.00;99.90
28524;DHT22;15734;50.904;6.922;2022-12-20T07:13:01;9.00;99.90
28524;DHT22;15734;50.904;6.922;2022-12-20T07:15:27;9.00;99.90
28524;DHT22;15734;50.904;6.922;2022-12-20T07:17:52;8.90;99.90
28524;DHT22;15734;50.904;6.922;2022-12-20T07:20:18;8.90;99.90
28524;DHT22;15734;50.904;6.922;2022-12-20T07:22:45;8.90;99.90
28524;DHT22;15734;50.904;6.922;2022-12-20T07:25:11;8.90;99.90
28524;DHT22;15734;50.904;6.922;2022-12-20T07:27:37;8.80;99.90
28524;DHT22;15734;50.904;6.922;2022-12-20T07:30:02;8.80;99.90
28524;DHT22;15734;50.904;6.922;2022-12-20T07:32:29;8.80;99.90
28524;DHT22;15734;50.904;6.922;2022-12-20T07:34:54;8.80;99.90
28524;DHT22;15734;50.904;6.922;2022-12-20T07:37:20;8.70;99.90
28524;DHT22;15734;50.904;6.922;2022-12-20T07:39:45;8.70;99.90
28524;DHT22;15734;50.904;6.922;2022-12-20T07:42:11;8.70;99.90
28524;DHT22;15734;50.904;6.922;2022-12-20T07:44:36;8.70;99.90
28524;DHT22;15734;50.904;6.922;2022-12-20T07:47:01;8.70;99.90
28524;DHT22;15734;50.904;6.922;2022-12-20T07:49:27;8.70;99.90
28524;DHT22;15734;50.904;6.922;2022-12-20T07:51:54;8.70;99.90
28524;DHT22;15734;50.904;6.922;2022-12-20T07:54:22;8.70;99.90
28524;DHT22;15734;50.904;6.922;2022-12-20T07:56:52;8.70;99.90
28524;DHT22;15734;50.904;6.922;2022-12-20T07:59:20;8.80;99.90
28524;DHT22;15734;50.904;6.922;2022-12-20T08:01:47;8.80;99.90
28524;DHT22;15734;50.904;6.922;2022-12-20T08:04:15;8.80;99.90
28524;DHT22;15734;50.904;6.922;2022-12-20T08:06:41;8.80;99.90
28524;DHT22;15734;50.904;6.922;2022-12-20T08:09:07;8.90;99.90
28524;DHT22;15734;50.904;6.922;2022-12-20T08:11:33;8.80;99.90
28524;DHT22;15734;50.904;6.922;2022-12-20T08:14:01;8.90;99.90
28524;DHT22;15734;50.904;6.922;2022-12-20T08:16:26;8.80;99.90
28524;DHT22;15734;50.904;6.922;2022-12-20T08:18:52;8.90;99.90
28524;DHT22;15734;50.904;6.922;2022-12-20T08:21:17;8.90;99.90
28524;DHT22;15734;50.904;6.922;2022-12-20T08:23:43;8.90;99.90
28524;DHT22;15734;50.904;6.922;2022-12-20T08:26:08;8.90;99.90
28524;DHT22;15734;50.904;6.922;2022-12-20T08:28:34;8.90;99.90
28524;DHT22;15734;50.904;6.922;2022-12-20T08:31:03;9.00;99.90
28524;DHT22;15734;50.904;6.922;2022-12-20T08:33:29;9.00;99.90
28524;DHT22;15734;50.904;6.922;2022-12-20T08:35:58;9.00;99.90
28524;DHT22;15734;50.904;6.922;2022-12-20T08:38:25;9.00;99.90
28524;DHT22;15734;50.904;6.922;2022-12-20T08:40:50;9.00;99.90
28524;DHT22;15734;50.904;6.922;2022-12-20T08:43:16;9.10;99.90
28524;DHT22;15734;50.904;6.922;2022-12-20T08:45:41;9.10;99.90
28524;DHT22;15734;50.904;6.922;2022-12-20T08:48:07;9.00;99.90
28524;DHT22;15734;50.904;6.922;2022-12-20T08:50:32;9.00;99.90
28524;DHT22;15734;50.904;6.922;2022-12-20T08:52:57;9.00;99.90
28524;DHT22;15734;50.904;6.922;2022-12-20T08:55:23;9.10;99.90
28524;DHT22;15734;50.904;6.922;2022-12-20T08:57:49;9.10;99.90
28524;DHT22;15734;50.904;6.922;2022-12-20T09:00:14;9.10;99.90
28524;DHT22;15734;50.904;6.922;2022-12-20T09:02:40;9.10;99.90
28524;DHT22;15734;50.904;6.922;2022-12-20T09:05:06;9.00;99.90
28524;DHT22;15734;50.904;6.922;2022-12-20T09:07:32;8.90;99.90
28524;DHT22;15734;50.904;6.922;2022-12-20T09:09:57;9.00;99.90
28524;DHT22;15734;50.904;6.922;2022-12-20T09:12:23;8.90;99.90
28524;DHT22;15734;50.904;6.922;2022-12-20T09:14:48;8.90;99.90
28524;DHT22;15734;50.904;6.922;2022-12-20T09:17:14;8.90;99.90
28524;DHT22;15734;50.904;6.922;2022-12-20T09:19:39;8.90;99.90
28524;DHT22;15734;50.904;6.922;2022-12-20T09:22:04;8.90;99.90
28524;DHT22;15734;50.904;6.922;2022-12-20T09:24:30;8.90;99.90
28524;DHT22;15734;50.904;6.922;2022-12-20T09:26:55;9.00;99.90
28524;DHT22;15734;50.904;6.922;2022-12-20T09:29:21;9.00;99.90
28524;DHT22;15734;50.904;6.922;2022-12-20T09:31:48;9.00;99.90
28524;DHT22;15734;50.904;6.922;2022-12-20T09:34:13;9.00;99.90
28524;DHT22;15734;50.904;6.922;2022-12-20T09:36:39;9.00;99.90
28524;DHT22;15734;50.904;6.922;2022-12-20T09:39:04;9.10;99.90
28524;DHT22;15734;50.904;6.922;2022-12-20T09:41:31;9.10;99.90
28524;DHT22;15734;50.904;6.922;2022-12-20T09:43:58;9.20;99.90
28524;DHT22;15734;50.904;6.922;2022-12-20T09:46:24;9.30;99.90
28524;DHT22;15734;50.904;6.922;2022-12-20T09:48:50;9.40;99.90
28524;DHT22;15734;50.904;6.922;2022-12-20T09:54:03;9.60;99.90
28524;DHT22;15734;50.904;6.922;2022-12-20T09:56:50;9.70;99.90
28524;DHT22;15734;50.904;6.922;2022-12-20T09:59:20;9.70;99.90
28524;DHT22;15734;50.904;6.922;2022-12-20T10:01:46;9.80;99.90
28524;DHT22;15734;50.904;6.922;2022-12-20T10:04:16;9.80;99.90
28524;DHT22;15734;50.904;6.922;2022-12-20T10:06:59;9.90;99.90
28524;DHT22;15734;50.904;6.922;2022-12-20T10:12:11;10.20;99.90
28524;DHT22;15734;50.904;6.922;2022-12-20T10:14:59;10.30;99.90
28524;DHT22;15734;50.904;6.922;2022-12-20T10:20:18;10.30;99.90
28524;DHT22;15734;50.904;6.922;2022-12-20T10:25:18;10.60;99.90
28524;DHT22;15734;50.904;6.922;2022-12-20T10:27:44;10.70;99.90
28524;DHT22;15734;50.904;6.922;2022-12-20T10:30:13;10.70;99.90
28524;DHT22;15734;50.904;6.922;2022-12-20T10:32:41;10.80;99.90
28524;DHT22;15734;50.904;6.922;2022-12-20T10:35:15;10.80;99.90
28524;DHT22;15734;50.904;6.922;2022-12-20T10:38:01;10.90;99.90
28524;DHT22;15734;50.904;6.922;2022-12-20T10:40:40;10.90;99.90
28524;DHT22;15734;50.904;6.922;2022-12-20T10:43:13;11.00;99.90
28524;DHT22;15734;50.904;6.922;2022-12-20T10:45:39;10.90;99.90
28524;DHT22;15734;50.904;6.922;2022-12-20T10:48:21;11.00;99.90
28524;DHT22;15734;50.904;6.922;2022-12-20T10:50:58;10.90;99.90
28524;DHT22;15734;50.904;6.922;2022-12-20T10:53:24;10.90;99.90
28524;DHT22;15734;50.904;6.922;2022-12-20T10:55:51;10.90;99.90
28524;DHT22;15734;50.904;6.922;2022-12-20T10:58:22;10.90;99.90
28524;DHT22;15734;50.904;6.922;2022-12-20T11:01:15;10.90;99.90
28524;DHT22;15734;50.904;6.922;2022-12-20T11:03:50;10.80;99.90
28524;DHT22;15734;50.904;6.922;2022-12-20T11:06:17;10.80;99.90
28524;DHT22;15734;50.904;6.922;2022-12-20T11:08:42;10.70;99.90
28524;DHT22;15734;50.904;6.922;2022-12-20T11:11:15;10.70;99.90
28524;DHT22;15734;50.904;6.922;2022-12-20T11:13:42;10.70;99.90
28524;DHT22;15734;50.904;6.922;2022-12-20T11:24:20;10.70;99.90
28524;DHT22;15734;50.904;6.922;2022-12-20T11:26:59;10.70;99.90
28524;DHT22;15734;50.904;6.922;2022-12-20T11:34:29;10.80;99.90
28524;DHT22;15734;50.904;6.922;2022-12-20T11:39:58;10.90;99.90
28524;DHT22;15734;50.904;6.922;2022-12-20T11:45:19;10.90;99.90
28524;DHT22;15734;50.904;6.922;2022-12-20T11:52:47;11.10;99.90
28524;DHT22;15734;50.904;6.922;2022-12-20T11:55:17;11.10;99.90
28524;DHT22;15734;50.904;6.922;2022-12-20T11:57:47;11.10;99.90
28524;DHT22;15734;50.904;6.922;2022-12-20T12:00:15;11.20;99.90
28524;DHT22;15734;50.904;6.922;2022-12-20T12:02:49;11.20;99.90
28524;DHT22;15734;50.904;6.922;2022-12-20T12:07:41;11.20;99.90
28524;DHT22;15734;50.904;6.922;2022-12-20T12:10:29;11.20;99.90
28524;DHT22;15734;50.904;6.922;2022-12-20T12:15:39;11.20;99.90
28524;DHT22;15734;50.904;6.922;2022-12-20T12:18:16;11.10;99.90
28524;DHT22;15734;50.904;6.922;2022-12-20T12:23:25;11.10;99.90
28524;DHT22;15734;50.904;6.922;2022-12-20T12:25:51;11.00;99.90
28524;DHT22;15734;50.904;6.922;2022-12-20T12:28:17;11.00;99.90
28524;DHT22;15734;50.904;6.922;2022-12-20T12:30:45;11.00;99.90
28524;DHT22;15734;50.904;6.922;2022-12-20T12:33:15;10.90;99.90
28524;DHT22;15734;50.904;6.922;2022-12-20T12:43:43;10.70;99.90
28524;DHT22;15734;50.904;6.922;2022-12-20T12:48:40;10.70;99.90
28524;DHT22;15734;50.904;6.922;2022-12-20T12:51:06;10.70;99.90
28524;DHT22;15734;50.904;6.922;2022-12-20T12:53:51;10.60;99.90
28524;DHT22;15734;50.904;6.922;2022-12-20T13:01:52;10.50;99.90
28524;DHT22;15734;50.904;6.922;2022-12-20T13:11:50;10.40;99.90
28524;DHT22;15734;50.904;6.922;2022-12-20T13:16:41;10.20;99.90
28524;DHT22;15734;50.904;6.922;2022-12-20T13:19:11;10.20;99.90
28524;DHT22;15734;50.904;6.922;2022-12-20T13:21:37;10.20;99.90
28524;DHT22;15734;50.904;6.922;2022-12-20T13:27:13;10.10;99.90
28524;DHT22;15734;50.904;6.922;2022-12-20T13:29:50;10.00;99.90
28524;DHT22;15734;50.904;6.922;2022-12-20T13:35:00;9.90;99.90
28524;DHT22;15734;50.904;6.922;2022-12-20T13:37:27;9.90;99.90
28524;DHT22;15734;50.904;6.922;2022-12-20T13:39:52;9.90;99.90
28524;DHT22;15734;50.904;6.922;2022-12-20T13:42:33;9.90;99.90
28524;DHT22;15734;50.904;6.922;2022-12-20T13:45:00;9.90;99.90
28524;DHT22;15734;50.904;6.922;2022-12-20T13:47:31;9.90;99.90
28524;DHT22;15734;50.904;6.922;2022-12-20T13:49:58;9.90;99.90
28524;DHT22;15734;50.904;6.922;2022-12-20T13:52:26;9.90;99.90
28524;DHT22;15734;50.904;6.922;2022-12-20T13:54:53;9.90;99.90
28524;DHT22;15734;50.904;6.922;2022-12-20T13:57:30;9.90;99.90
28524;DHT22;15734;50.904;6.922;2022-12-20T13:59:57;9.90;99.90
28524;DHT22;15734;50.904;6.922;2022-12-20T14:02:25;10.00;99.90
28524;DHT22;15734;50.904;6.922;2022-12-20T14:04:59;10.00;99.90
28524;DHT22;15734;50.904;6.922;2022-12-20T14:07:26;10.00;99.90
28524;DHT22;15734;50.904;6.922;2022-12-20T14:09:57;10.00;99.90
28524;DHT22;15734;50.904;6.922;2022-12-20T14:12:24;10.00;99.90
28524;DHT22;15734;50.904;6.922;2022-12-20T14:14:50;9.90;99.90
28524;DHT22;15734;50.904;6.922;2022-12-20T14:17:21;10.00;99.90
28524;DHT22;15734;50.904;6.922;2022-12-20T14:19:47;9.90;99.90
28524;DHT22;15734;50.904;6.922;2022-12-20T14:22:25;9.90;99.90
28524;DHT22;15734;50.904;6.922;2022-12-20T14:24:51;9.80;99.90
28524;DHT22;15734;50.904;6.922;2022-12-20T14:27:16;9.80;99.90
28524;DHT22;15734;50.904;6.922;2022-12-20T14:29:42;9.80;99.90
28524;DHT22;15734;50.904;6.922;2022-12-20T14:32:16;9.80;99.90
28524;DHT22;15734;50.904;6.922;2022-12-20T14:34:42;9.80;99.90
28524;DHT22;15734;50.904;6.922;2022-12-20T14:37:24;9.80;99.90
28524;DHT22;15734;50.904;6.922;2022-12-20T14:39:55;9.80;99.90
28524;DHT22;15734;50.904;6.922;2022-12-20T14:42:22;9.70;99.90
28524;DHT22;15734;50.904;6.922;2022-12-20T14:45:00;9.70;99.90
28524;DHT22;15734;50.904;6.922;2022-12-20T14:47:26;9.70;99.90
28524;DHT22;15734;50.904;6.922;2022-12-20T14:50:03;9.70;99.90
28524;DHT22;15734;50.904;6.922;2022-12-20T14:52:33;9.70;99.90
28524;DHT22;15734;50.904;6.922;2022-12-20T14:55:01;9.80;99.90
28524;DHT22;15734;50.904;6.922;2022-12-20T14:57:28;9.80;99.90
28524;DHT22;15734;50.904;6.922;2022-12-20T15:00:19;9.80;99.90
28524;DHT22;15734;50.904;6.922;2022-12-20T15:05:35;9.80;99.90
28524;DHT22;15734;50.904;6.922;2022-12-20T15:10:51;9.80;99.90
28524;DHT22;15734;50.904;6.922;2022-12-20T15:13:18;9.90;99.90
28524;DHT22;15734;50.904;6.922;2022-12-20T15:15:44;9.80;99.90
28524;DHT22;15734;50.904;6.922;2022-12-20T15:18:11;9.90;99.90
28524;DHT22;15734;50.904;6.922;2022-12-20T15:20:37;9.90;99.90
28524;DHT22;15734;50.904;6.922;2022-12-20T15:23:02;9.90;99.90
28524;DHT22;15734;50.904;6.922;2022-12-20T15:25:28;10.00;99.90
28524;DHT22;15734;50.904;6.922;2022-12-20T15:27:54;10.00;99.90
28524;DHT22;15734;50.904;6.922;2022-12-20T15:30:20;10.00;99.90
28524;DHT22;15734;50.904;6.922;2022-12-20T15:32:45;10.00;99.90
28524;DHT22;15734;50.904;6.922;2022-12-20T15:35:12;10.00;99.90
28524;DHT22;15734;50.904;6.922;2022-12-20T15:37:37;10.00;99.90
28524;DHT22;15734;50.904;6.922;2022-12-20T15:40:03;10.00;99.90
28524;DHT22;15734;50.904;6.922;2022-12-20T15:42:28;10.00;99.90
28524;DHT22;15734;50.904;6.922;2022-12-20T15:44:54;9.90;99.90
28524;DHT22;15734;50.904;6.922;2022-12-20T15:47:19;9.90;99.90
28524;DHT22;15734;50.904;6.922;2022-12-20T15:49:45;9.90;99.90
28524;DHT22;15734;50.904;6.922;2022-12-20T15:52:20;9.90;99.90
28524;DHT22;15734;50.904;6.922;2022-12-20T15:54:46;9.90;99.90
28524;DHT22;15734;50.904;6.922;2022-12-20T15:57:12;9.90;99.90
28524;DHT22;15734;50.904;6.922;2022-12-20T15:59:38;9.90;99.90
28524;DHT22;15734;50.904;6.922;2022-12-20T16:02:20;9.90;99.90
28524;DHT22;15734;50.904;6.922;2022-12-20T16:04:46;9.90;99.90
28524;DHT22;15734;50.904;6.922;2022-12-20T16:07:12;9.90;99.90
28524;DHT22;15734;50.904;6.922;2022-12-20T16:09:37;9.80;99.90
28524;DHT22;15734;50.904;6.922;2022-12-20T16:12:04;9.80;99.90
28524;DHT22;15734;50.904;6.922;2022-12-20T16:14:29;9.80;99.90
28524;DHT22;15734;50.904;6.922;2022-12-20T16:16:55;9.80;99.90
28524;DHT22;15734;50.904;6.922;2022-12-20T16:19:20;9.80;99.90
28524;DHT22;15734;50.904;6.922;2022-12-20T16:21:46;9.80;99.90
28524;DHT22;15734;50.904;6.922;2022-12-20T16:24:13;9.80;99.90
28524;DHT22;15734;50.904;6.922;2022-12-20T16:26:39;9.80;99.90
28524;DHT22;15734;50.904;6.922;2022-12-20T16:29:04;9.90;99.90
28524;DHT22;15734;50.904;6.922;2022-12-20T16:31:31;9.80;99.90
28524;DHT22;15734;50.904;6.922;2022-12-20T16:33:57;9.80;99.90
28524;DHT22;15734;50.904;6.922;2022-12-20T16:36:23;9.80;99.90
28524;DHT22;15734;50.904;6.922;2022-12-20T16:38:49;9.80;99.90
28524;DHT22;15734;50.904;6.922;2022-12-20T16:41:16;9.80;99.90
28524;DHT22;15734;50.904;6.922;2022-12-20T16:43:42;9.80;99.90
28524;DHT22;15734;50.904;6.922;2022-12-20T16:46:14;9.80;99.90
28524;DHT22;15734;50.904;6.922;2022-12-20T16:48:41;9.90;99.90
28524;DHT22;15734;50.904;6.922;2022-12-20T16:53:51;9.90;99.90
28524;DHT22;15734;50.904;6.922;2022-12-20T16:56:17;9.80;99.90
28524;DHT22;15734;50.904;6.922;2022-12-20T16:58:42;9.80;99.90
28524;DHT22;15734;50.904;6.922;2022-12-20T17:01:15;9.80;99.90
28524;DHT22;15734;50.904;6.922;2022-12-20T17:03:42;9.80;99.90
28524;DHT22;15734;50.904;6.922;2022-12-20T17:06:08;9.80;99.90
28524;DHT22;15734;50.904;6.922;2022-12-20T17:08:34;9.80;99.90
28524;DHT22;15734;50.904;6.922;2022-12-20T17:10:59;9.80;99.90
28524;DHT22;15734;50.904;6.922;2022-12-20T17:13:25;9.80;99.90
28524;DHT22;15734;50.904;6.922;2022-12-20T17:15:50;9.80;99.90
28524;DHT22;15734;50.904;6.922;2022-12-20T17:18:16;9.80;99.90
28524;DHT22;15734;50.904;6.922;2022-12-20T17:20:41;9.80;99.90
28524;DHT22;15734;50.904;6.922;2022-12-20T17:23:07;9.80;99.90